createdAt,value
2022-08-29T00:01:58.577Z,21.93
2022-08-29T00:05:01.218Z,16.50
2022-08-29T00:08:06.675Z,21.07
2022-08-29T00:11:09.293Z,15.33
2022-08-29T00:14:20.448Z,15.50
2022-08-29T00:17:25.918Z,18.30
2022-08-29T00:20:34.625Z,19.00
2022-08-29T00:23:39.017Z,20.90
2022-08-29T00:26:41.614Z,17.13
2022-08-29T00:29:44.235Z,17.60
2022-08-29T00:32:46.805Z,17.10
2022-08-29T00:35:49.445Z,18.00
2022-08-29T00:38:54.799Z,13.50
2022-08-29T00:42:01.011Z,15.77
2022-08-29T00:45:05.954Z,12.60
2022-08-29T00:48:13.089Z,15.47
2022-08-29T00:51:18.763Z,19.13
2022-08-29T00:54:23.530Z,20.20
2022-08-29T00:57:29.429Z,18.07
2022-08-29T01:00:33.106Z,19.20
2022-08-29T01:03:42.687Z,16.57
2022-08-29T01:06:46.644Z,14.57
2022-08-29T01:09:50.614Z,15.40
2022-08-29T01:12:52.401Z,16.90
2022-08-29T01:15:55.905Z,16.23
2022-08-29T01:19:04.125Z,11.73
2022-08-29T01:22:19.874Z,14.70
2022-08-29T01:25:26.853Z,16.00
2022-08-29T01:28:32.671Z,12.67
2022-08-29T01:31:55.895Z,17.73
2022-08-29T01:35:00.373Z,19.87
2022-08-29T01:38:03.108Z,22.10
2022-08-29T01:41:07.429Z,15.80
2022-08-29T01:44:12.473Z,22.43
2022-08-29T01:47:15.206Z,20.10
2022-08-29T01:50:18.255Z,25.67
2022-08-29T01:53:20.869Z,15.80
2022-08-29T01:56:27.280Z,19.83
2022-08-29T01:59:31.539Z,21.03
2022-08-29T02:02:34.328Z,19.03
2022-08-29T02:05:37.006Z,18.40
2022-08-29T02:08:41.290Z,18.13
2022-08-29T02:11:46.417Z,23.03
2022-08-29T02:14:50.601Z,14.50
2022-08-29T02:17:53.157Z,18.13
2022-08-29T02:20:55.826Z,18.30
2022-08-29T02:24:11.459Z,11.13
2022-08-29T02:27:24.936Z,17.10
2022-08-29T02:30:27.662Z,17.97
2022-08-29T02:33:31.288Z,23.47
2022-08-29T02:36:35.010Z,20.67
2022-08-29T02:39:37.622Z,14.53
2022-08-29T02:42:41.578Z,20.70
2022-08-29T02:45:44.834Z,14.40
2022-08-29T02:48:54.126Z,19.03
2022-08-29T02:52:06.510Z,15.63
2022-08-29T02:55:12.237Z,16.80
2022-08-29T02:58:16.753Z,20.47
2022-08-29T03:01:21.528Z,16.57
2022-08-29T03:04:24.270Z,20.17
2022-08-29T03:07:26.922Z,24.63
2022-08-29T03:10:29.790Z,15.97
2022-08-29T03:13:34.623Z,19.80
2022-08-29T03:16:37.275Z,16.67
2022-08-29T03:19:39.901Z,18.33
2022-08-29T03:22:42.614Z,20.80
2022-08-29T03:25:45.235Z,14.30
2022-08-29T03:28:49.220Z,21.80
2022-08-29T03:31:51.832Z,22.40
2022-08-29T03:34:55.785Z,18.60
2022-08-29T03:37:58.505Z,17.13
2022-08-29T03:41:01.084Z,13.77
2022-08-29T03:44:05.215Z,15.57
2022-08-29T03:47:08.251Z,18.73
2022-08-29T03:50:13.096Z,15.40
2022-08-29T03:53:17.249Z,16.87
2022-08-29T03:56:20.626Z,18.83
2022-08-29T03:59:24.705Z,17.33
2022-08-29T04:02:27.430Z,15.47
2022-08-29T04:05:30.106Z,14.27
2022-08-29T04:08:32.708Z,14.30
2022-08-29T04:11:35.287Z,19.83
2022-08-29T04:14:39.477Z,13.93
2022-08-29T04:17:51.036Z,17.87
2022-08-29T04:21:02.573Z,18.03
2022-08-29T04:24:05.261Z,20.63
2022-08-29T04:27:08.062Z,18.67
2022-08-29T04:30:15.533Z,20.13
2022-08-29T04:33:22.521Z,16.00
2022-08-29T04:36:26.049Z,14.10
2022-08-29T04:39:28.618Z,12.60
2022-08-29T04:42:32.028Z,11.23
2022-08-29T04:45:36.743Z,19.50
2022-08-29T04:48:39.306Z,14.30
2022-08-29T04:51:41.955Z,16.70
2022-08-29T04:54:44.537Z,15.70
2022-08-29T04:57:47.482Z,11.33
2022-08-29T05:00:52.642Z,15.03
2022-08-29T05:03:56.477Z,14.80
2022-08-29T05:06:59.104Z,16.53
2022-08-29T05:10:05.314Z,13.30
2022-08-29T05:13:07.910Z,14.60
2022-08-29T05:16:13.974Z,13.70
2022-08-29T05:19:16.990Z,18.13
2022-08-29T05:22:21.070Z,15.40
2022-08-29T05:25:24.186Z,13.33
2022-08-29T05:28:26.927Z,12.57
2022-08-29T05:31:31.222Z,10.73
2022-08-29T05:34:35.292Z,12.70
2022-08-29T05:37:38.696Z,10.23
2022-08-29T05:40:41.859Z,14.10
2022-08-29T05:43:44.513Z,10.50
2022-08-29T05:46:48.716Z,11.37
2022-08-29T05:49:51.339Z,9.40
2022-08-29T05:52:53.921Z,14.00
2022-08-29T05:55:56.679Z,11.33
2022-08-29T05:58:59.497Z,11.37
2022-08-29T06:02:03.874Z,8.53
2022-08-29T06:05:07.166Z,7.57
2022-08-29T06:08:13.135Z,6.70
2022-08-29T06:11:17.259Z,8.80
2022-08-29T06:14:19.853Z,8.70
2022-08-29T06:17:23.802Z,9.83
2022-08-29T06:20:26.448Z,6.67
2022-08-29T06:23:29.063Z,6.13
2022-08-29T06:26:32.803Z,5.57
2022-08-29T06:29:43.508Z,6.83
2022-08-29T06:32:47.769Z,4.83
2022-08-29T06:35:50.337Z,5.60
2022-08-29T06:38:53.007Z,4.90
2022-08-29T06:41:55.601Z,6.53
2022-08-29T06:44:58.208Z,6.90
2022-08-29T06:48:02.107Z,7.00
2022-08-29T06:51:05.077Z,3.40
2022-08-29T06:54:09.166Z,3.77
2022-08-29T06:57:12.777Z,7.63
2022-08-29T07:00:22.126Z,5.77
2022-08-29T07:03:26.604Z,3.43
2022-08-29T07:06:29.813Z,3.47
2022-08-29T07:09:32.390Z,2.53
2022-08-29T07:12:35.293Z,3.70
2022-08-29T07:15:38.151Z,3.70
2022-08-29T07:18:42.102Z,3.93
2022-08-29T07:21:44.681Z,2.77
2022-08-29T07:24:47.307Z,2.87
2022-08-29T07:27:53.349Z,3.50
2022-08-29T07:30:56.213Z,2.73
2022-08-29T07:34:02.925Z,4.30
2022-08-29T07:37:06.122Z,4.17
2022-08-29T07:40:11.098Z,2.40
2022-08-29T07:43:19.249Z,11.03
2022-08-29T07:46:22.889Z,2.30
2022-08-29T07:49:40.339Z,2.63
2022-08-29T07:52:43.823Z,5.73
2022-08-29T07:55:46.632Z,2.13
2022-08-29T07:58:49.355Z,3.33
2022-08-29T08:01:52.266Z,2.13
2022-08-29T08:04:56.227Z,2.90
2022-08-29T08:08:02.159Z,2.90
2022-08-29T08:11:09.628Z,2.47
2022-08-29T08:14:12.980Z,5.70
2022-08-29T08:17:15.600Z,4.07
2022-08-29T08:20:19.701Z,2.10
2022-08-29T08:23:22.208Z,3.83
2022-08-29T08:26:25.023Z,2.20
2022-08-29T08:29:27.662Z,4.00
2022-08-29T08:32:32.667Z,4.63
2022-08-29T08:35:41.967Z,3.50
2022-08-29T08:38:44.915Z,2.63
2022-08-29T08:41:55.704Z,5.03
2022-08-29T08:45:09.020Z,2.53
2022-08-29T08:48:17.247Z,4.25
2022-08-29T08:51:24.554Z,3.67
2022-08-29T08:54:34.257Z,3.42
2022-08-29T08:57:40.866Z,3.57
2022-08-29T09:00:47.180Z,3.88
2022-08-29T09:04:10.497Z,2.42
2022-08-29T09:07:42.059Z,1.63
2022-08-29T09:10:58.855Z,2.38
2022-08-29T09:14:08.519Z,1.63
2022-08-29T09:17:20.304Z,2.58
2022-08-29T09:20:25.982Z,2.55
2022-08-29T09:23:37.435Z,1.67
2022-08-29T09:26:40.761Z,2.13
2022-08-29T09:29:43.702Z,2.72
2022-08-29T09:32:54.700Z,2.85
2022-08-29T09:35:57.291Z,4.90
2022-08-29T09:39:12.109Z,2.58
2022-08-29T09:42:19.257Z,3.63
2022-08-29T09:45:25.643Z,2.22
2022-08-29T09:48:32.132Z,1.45
2022-08-29T09:51:39.416Z,1.90
2022-08-29T09:54:44.432Z,1.98
2022-08-29T09:57:53.061Z,1.23
2022-08-29T10:01:02.182Z,1.42
2022-08-29T10:04:09.043Z,1.92
2022-08-29T10:07:17.415Z,1.48
2022-08-29T10:10:24.204Z,2.15
2022-08-29T10:13:34.376Z,1.48
2022-08-29T10:16:47.201Z,1.83
2022-08-29T10:19:50.353Z,1.33
2022-08-29T10:22:59.126Z,3.15
2022-08-29T10:26:10.569Z,2.78
2022-08-29T10:29:29.657Z,1.40
2022-08-29T10:32:55.949Z,1.65
2022-08-29T10:36:02.170Z,1.92
2022-08-29T10:39:13.670Z,1.10
2022-08-29T10:42:21.554Z,1.65
2022-08-29T10:45:30.684Z,1.10
2022-08-29T10:48:38.518Z,2.00
2022-08-29T10:51:48.431Z,2.80
2022-08-29T10:55:00.307Z,1.75
2022-08-29T10:58:12.781Z,4.43
2022-08-29T11:01:22.314Z,1.98
2022-08-29T11:04:31.788Z,3.03
2022-08-29T11:07:40.735Z,1.42
2022-08-29T11:10:49.673Z,2.75
2022-08-29T11:13:58.737Z,1.45
2022-08-29T11:17:06.971Z,1.23
2022-08-29T11:20:13.829Z,2.30
2022-08-29T11:23:28.103Z,2.90
2022-08-29T11:26:45.843Z,3.65
2022-08-29T11:29:57.894Z,1.35
2022-08-29T11:33:09.918Z,4.88
2022-08-29T11:36:40.633Z,2.03
2022-08-29T11:39:59.864Z,1.15
2022-08-29T11:43:12.420Z,4.47
2022-08-29T11:46:31.044Z,4.10
2022-08-29T11:49:40.857Z,2.80
2022-08-29T11:52:51.033Z,1.83
2022-08-29T11:56:21.413Z,3.42
2022-08-29T11:59:59.523Z,2.65
2022-08-29T12:03:04.561Z,1.85
2022-08-29T12:06:29.737Z,4.18
2022-08-29T12:09:51.047Z,3.13
2022-08-29T12:12:56.527Z,1.25
2022-08-29T12:16:08.652Z,1.40
2022-08-29T12:19:12.846Z,2.55
2022-08-29T12:22:53.033Z,2.63
2022-08-29T12:26:16.214Z,1.40
2022-08-29T12:29:22.048Z,3.30
2022-08-29T12:32:40.278Z,1.60
2022-08-29T12:36:10.793Z,1.58
2022-08-29T12:39:46.799Z,2.45
2022-08-29T12:43:07.748Z,4.13
2022-08-29T12:46:18.121Z,1.83
2022-08-29T12:49:25.578Z,2.13
2022-08-29T12:52:32.289Z,2.45
2022-08-29T12:55:39.851Z,5.20
2022-08-29T12:58:45.339Z,2.08
2022-08-29T13:01:50.452Z,4.30
2022-08-29T13:04:58.311Z,2.15
2022-08-29T13:08:09.630Z,10.05
2022-08-29T13:11:19.617Z,3.15
2022-08-29T13:14:23.690Z,2.45
2022-08-29T13:17:29.822Z,2.47
2022-08-29T13:20:46.727Z,6.55
2022-08-29T13:23:59.897Z,5.82
2022-08-29T13:27:06.309Z,8.57
2022-08-29T13:30:09.995Z,1.63
2022-08-29T13:33:34.822Z,1.88
2022-08-29T13:36:41.394Z,3.35
2022-08-29T13:39:47.837Z,1.65
2022-08-29T13:42:50.512Z,3.10
2022-08-29T13:46:03.410Z,2.00
2022-08-29T13:49:08.426Z,2.15
2022-08-29T13:52:11.572Z,2.35
2022-08-29T13:55:15.493Z,3.75
2022-08-29T13:58:22.686Z,3.97
2022-08-29T14:02:08.550Z,4.45
2022-08-29T14:04:48.659Z,5.38
2022-08-29T14:07:51.457Z,3.47
2022-08-29T14:10:55.358Z,9.57
2022-08-29T14:13:57.918Z,6.95
2022-08-29T14:17:00.672Z,3.72
2022-08-29T14:20:03.640Z,3.47
2022-08-29T14:23:06.301Z,1.88
2022-08-29T14:26:10.229Z,6.03
2022-08-29T14:29:12.953Z,2.78
2022-08-29T14:32:15.786Z,5.35
2022-08-29T14:35:25.731Z,5.00
2022-08-29T14:38:29.554Z,1.92
2022-08-29T14:41:33.830Z,3.90
2022-08-29T14:44:36.426Z,2.25
2022-08-29T14:47:39.507Z,3.00
2022-08-29T14:50:42.105Z,2.47
2022-08-29T14:53:51.605Z,6.68
2022-08-29T14:56:58.769Z,3.28
2022-08-29T15:00:01.392Z,4.85
2022-08-29T15:03:04.463Z,5.43
2022-08-29T15:06:07.594Z,3.05
2022-08-29T15:09:10.175Z,2.25
2022-08-29T15:12:15.721Z,2.25
2022-08-29T15:15:18.734Z,1.88
2022-08-29T15:19:00.691Z,1.77
2022-08-29T15:21:45.362Z,6.97
2022-08-29T15:24:50.008Z,1.75
2022-08-29T15:27:53.931Z,2.75
2022-08-29T15:30:56.542Z,2.50
2022-08-29T15:33:59.390Z,2.75
2022-08-29T15:37:02.223Z,4.32
2022-08-29T15:40:10.936Z,2.13
2022-08-29T15:43:16.851Z,3.00
2022-08-29T15:46:19.508Z,1.23
2022-08-29T15:49:25.557Z,4.20
2022-08-29T15:52:31.063Z,3.85
2022-08-29T15:55:33.954Z,3.93
2022-08-29T15:58:38.006Z,3.57
2022-08-29T16:01:43.541Z,0.80
2022-08-29T16:04:47.787Z,1.00
2022-08-29T16:07:50.601Z,2.70
2022-08-29T16:10:53.220Z,5.63
2022-08-29T16:14:15.672Z,4.73
2022-08-29T16:17:20.347Z,2.07
2022-08-29T16:20:23.170Z,2.30
2022-08-29T16:23:25.752Z,1.43
2022-08-29T16:26:28.464Z,3.03
2022-08-29T16:29:32.624Z,1.30
2022-08-29T16:32:35.460Z,3.63
2022-08-29T16:35:39.174Z,3.47
2022-08-29T16:38:42.853Z,2.37
2022-08-29T16:41:46.042Z,5.17
2022-08-29T16:44:50.007Z,2.60
2022-08-29T16:47:57.251Z,5.83
2022-08-29T16:51:00.180Z,5.47
2022-08-29T16:54:02.785Z,6.93
2022-08-29T16:57:05.758Z,5.57
2022-08-29T17:00:11.890Z,2.30
2022-08-29T17:03:19.412Z,3.63
2022-08-29T17:06:22.704Z,6.70
2022-08-29T17:09:25.342Z,3.57
2022-08-29T17:12:27.490Z,5.37
2022-08-29T17:15:30.751Z,4.37
2022-08-29T17:18:33.793Z,2.43
2022-08-29T17:21:36.683Z,4.10
2022-08-29T17:24:39.282Z,3.67
2022-08-29T17:27:55.506Z,5.80
2022-08-29T17:31:06.492Z,4.07
2022-08-29T17:34:13.088Z,4.00
2022-08-29T17:37:16.046Z,8.30
2022-08-29T17:40:19.131Z,4.40
2022-08-29T17:43:25.898Z,2.50
2022-08-29T17:46:30.193Z,8.60
2022-08-29T17:49:32.961Z,4.43
2022-08-29T17:52:35.611Z,2.47
2022-08-29T17:55:38.264Z,7.40
2022-08-29T17:58:40.881Z,1.90
2022-08-29T18:01:45.227Z,6.17
2022-08-29T18:04:47.859Z,4.67
2022-08-29T18:07:51.397Z,2.90
2022-08-29T18:10:53.986Z,2.07
2022-08-29T18:13:56.667Z,3.03
2022-08-29T18:17:00.674Z,4.87
2022-08-29T18:20:03.792Z,4.27
2022-08-29T18:23:06.349Z,7.03
2022-08-29T18:26:08.961Z,3.70
2022-08-29T18:29:11.707Z,5.73
2022-08-29T18:32:15.601Z,5.60
2022-08-29T18:35:18.673Z,3.10
2022-08-29T18:38:21.317Z,4.63
2022-08-29T18:41:23.865Z,1.83
2022-08-29T18:44:26.426Z,3.17
2022-08-29T18:47:30.380Z,3.27
2022-08-29T18:50:36.500Z,3.07
2022-08-29T18:53:39.780Z,2.70
2022-08-29T18:56:42.387Z,4.43
2022-08-29T18:59:45.046Z,5.07
2022-08-29T19:02:49.122Z,4.60
2022-08-29T19:05:53.862Z,6.43
2022-08-29T19:08:57.610Z,2.97
2022-08-29T19:12:00.544Z,7.27
2022-08-29T19:15:04.137Z,4.50
2022-08-29T19:18:09.473Z,4.43
2022-08-29T19:21:12.093Z,5.63
2022-08-29T19:24:14.693Z,3.87
2022-08-29T19:27:39.756Z,5.73
2022-08-29T19:30:40.090Z,3.03
2022-08-29T19:33:44.079Z,3.77
2022-08-29T19:36:47.333Z,3.57
2022-08-29T19:39:49.942Z,5.20
2022-08-29T19:42:53.992Z,2.87
2022-08-29T19:45:57.435Z,2.20
2022-08-29T19:52:10.786Z,3.50
2022-08-29T19:55:17.543Z,5.63
2022-08-29T19:58:20.228Z,3.50
2022-08-29T20:01:23.359Z,2.70
2022-08-29T20:04:27.532Z,5.80
2022-08-29T20:07:30.424Z,7.10
2022-08-29T20:10:34.882Z,1.40
2022-08-29T20:13:38.100Z,2.00
2022-08-29T20:16:41.712Z,8.97
2022-08-29T20:19:45.943Z,5.90
2022-08-29T20:22:49.165Z,2.90
2022-08-29T20:25:51.756Z,3.37
2022-08-29T20:28:54.841Z,5.63
2022-08-29T20:31:57.579Z,3.20
2022-08-29T20:35:02.968Z,3.67
2022-08-29T20:38:04.599Z,5.50
2022-08-29T20:41:07.256Z,3.03
2022-08-29T20:44:10.873Z,5.53
2022-08-29T20:47:15.621Z,3.23
2022-08-29T20:50:20.497Z,2.60
2022-08-29T20:53:32.415Z,3.20
2022-08-29T20:56:35.423Z,2.40
2022-08-29T20:59:39.376Z,3.10
2022-08-29T21:02:59.765Z,3.13
2022-08-29T21:06:04.329Z,3.07
2022-08-29T21:09:07.238Z,2.80
2022-08-29T21:12:11.704Z,3.77
2022-08-29T21:15:14.320Z,4.30
2022-08-29T21:18:20.216Z,2.70
2022-08-29T21:21:25.180Z,5.33
2022-08-29T21:24:28.783Z,5.23
2022-08-29T21:27:31.368Z,4.00
2022-08-29T21:30:34.440Z,3.07
2022-08-29T21:33:37.958Z,4.00
2022-08-29T21:36:41.995Z,3.17
2022-08-29T21:39:46.481Z,4.23
2022-08-29T21:42:49.037Z,3.50
2022-08-29T21:45:51.622Z,3.57
2022-08-29T21:48:56.679Z,3.63
2022-08-29T21:52:01.062Z,4.13
2022-08-29T21:55:05.023Z,6.90
2022-08-29T21:58:07.989Z,3.43
2022-08-29T22:01:11.364Z,5.63
2022-08-29T22:04:19.113Z,7.30
2022-08-29T22:07:33.130Z,3.80
2022-08-29T22:10:38.241Z,10.23
2022-08-29T22:13:41.167Z,5.77
2022-08-29T22:16:42.940Z,8.73
2022-08-29T22:19:45.758Z,7.17
2022-08-29T22:22:49.713Z,11.93
2022-08-29T22:25:53.756Z,5.97
2022-08-29T22:28:56.705Z,6.40
2022-08-29T22:32:00.485Z,6.47
2022-08-29T22:35:03.136Z,2.43
2022-08-29T22:38:07.091Z,8.43
2022-08-29T22:41:11.280Z,5.13
2022-08-29T22:44:59.612Z,7.90
2022-08-29T22:47:37.664Z,3.73
2022-08-29T22:50:40.317Z,5.93
2022-08-29T22:54:08.235Z,3.77
2022-08-29T22:57:13.593Z,3.20
2022-08-29T23:00:19.172Z,4.13
2022-08-29T23:03:21.790Z,1.63
2022-08-29T23:06:25.299Z,5.03
2022-08-29T23:09:35.392Z,3.00
2022-08-29T23:12:39.054Z,2.60
2022-08-29T23:15:41.706Z,2.53
2022-08-29T23:18:44.373Z,2.50
2022-08-29T23:21:46.981Z,2.80
2022-08-29T23:24:58.233Z,3.67
2022-08-29T23:28:02.027Z,2.67
2022-08-29T23:31:04.965Z,2.93
2022-08-29T23:34:07.999Z,3.63
2022-08-29T23:37:10.691Z,8.00
2022-08-29T23:40:21.089Z,2.03
2022-08-29T23:43:24.505Z,2.17
2022-08-29T23:46:27.454Z,2.33
2022-08-29T23:49:30.479Z,6.07
2022-08-29T23:52:33.114Z,4.97
2022-08-29T23:55:37.493Z,2.10
2022-08-29T23:58:40.099Z,4.47
